sensor_id;sensor_type;location;lat;lon;timestamp;pressure;altitude;pressure_sealevel;temperature;humidity
10476;BME280;26166;48.264;11.436;2023-09-19T00:00:57;95894.13;;;19.46;67.16
10476;BME280;26166;48.264;11.436;2023-09-19T00:03:57;95894.94;;;19.46;67.01
10476;BME280;26166;48.264;11.436;2023-09-19T00:07:01;95891.44;;;19.46;66.84
10476;BME280;26166;48.264;11.436;2023-09-19T00:10:04;95884.03;;;19.48;66.99
10476;BME280;26166;48.264;11.436;2023-09-19T00:13:05;95884.03;;;19.48;66.86
10476;BME280;26166;48.264;11.436;2023-09-19T00:16:09;95874.41;;;19.47;66.95
10476;BME280;26166;48.264;11.436;2023-09-19T00:19:10;95875.47;;;19.46;66.89
10476;BME280;26166;48.264;11.436;2023-09-19T00:22:20;95871.19;;;19.45;66.93
10476;BME280;26166;48.264;11.436;2023-09-19T00:25:20;95872.00;;;19.45;66.82
10476;BME280;26166;48.264;11.436;2023-09-19T00:28:21;95881.84;;;19.45;66.87
10476;BME280;26166;48.264;11.436;2023-09-19T00:31:21;95884.50;;;19.45;66.85
10476;BME280;26166;48.264;11.436;2023-09-19T00:34:25;95896.78;;;19.46;67.06
10476;BME280;26166;48.264;11.436;2023-09-19T00:37:25;95896.78;;;19.46;66.92
10476;BME280;26166;48.264;11.436;2023-09-19T00:40:25;95900.50;;;19.45;66.81
10476;BME280;26166;48.264;11.436;2023-09-19T00:43:26;95902.09;;;19.46;66.80
10476;BME280;26166;48.264;11.436;2023-09-19T00:46:27;95903.16;;;19.45;66.89
10476;BME280;26166;48.264;11.436;2023-09-19T00:49:28;95911.16;;;19.45;66.83
10476;BME280;26166;48.264;11.436;2023-09-19T00:52:28;95914.03;;;19.43;66.86
10476;BME280;26166;48.264;11.436;2023-09-19T00:55:28;95914.03;;;19.43;66.78
10476;BME280;26166;48.264;11.436;2023-09-19T00:58:30;95912.19;;;19.44;66.73
10476;BME280;26166;48.264;11.436;2023-09-19T01:01:33;95921.81;;;19.45;66.61
10476;BME280;26166;48.264;11.436;2023-09-19T01:04:34;95929.78;;;19.45;66.64
10476;BME280;26166;48.264;11.436;2023-09-19T01:07:35;95928.97;;;19.44;66.67
10476;BME280;26166;48.264;11.436;2023-09-19T01:10:36;95920.19;;;19.44;66.75
10476;BME280;26166;48.264;11.436;2023-09-19T01:17:42;95936.16;;;19.44;66.44
10476;BME280;26166;48.264;11.436;2023-09-19T01:20:26;95940.66;;;19.43;66.60
10476;BME280;26166;48.264;11.436;2023-09-19T01:30:08;95944.38;;;19.42;66.24
10476;BME280;26166;48.264;11.436;2023-09-19T01:33:09;95947.03;;;19.42;66.21
10476;BME280;26166;48.264;11.436;2023-09-19T01:36:10;95952.59;;;19.40;65.86
10476;BME280;26166;48.264;11.436;2023-09-19T01:39:11;95945.66;;;19.39;65.86
10476;BME280;26166;48.264;11.436;2023-09-19T01:45:29;95945.66;;;19.39;66.26
10476;BME280;26166;48.264;11.436;2023-09-19T01:48:43;95947.72;;;19.37;66.20
10476;BME280;26166;48.264;11.436;2023-09-19T01:54:50;95955.72;;;19.37;66.34
10476;BME280;26166;48.264;11.436;2023-09-19T01:57:58;95959.19;;;19.38;66.21
10476;BME280;26166;48.264;11.436;2023-09-19T02:01:01;95957.56;;;19.37;66.52
10476;BME280;26166;48.264;11.436;2023-09-19T02:04:01;95953.03;;;19.37;66.46
10476;BME280;26166;48.264;11.436;2023-09-19T02:07:02;95953.03;;;19.37;66.73
10476;BME280;26166;48.264;11.436;2023-09-19T02:10:06;95958.38;;;19.37;66.56
10476;BME280;26166;48.264;11.436;2023-09-19T02:13:06;95960.00;;;19.38;66.41
10476;BME280;26166;48.264;11.436;2023-09-19T02:16:07;95965.31;;;19.38;66.38
10476;BME280;26166;48.264;11.436;2023-09-19T02:19:09;95964.75;;;19.36;66.42
10476;BME280;26166;48.264;11.436;2023-09-19T02:22:09;95957.81;;;19.35;66.47
10476;BME280;26166;48.264;11.436;2023-09-19T02:25:11;95953.03;;;19.37;66.29
10476;BME280;26166;48.264;11.436;2023-09-19T02:28:11;95956.75;;;19.36;66.37
10476;BME280;26166;48.264;11.436;2023-09-19T02:31:11;95962.88;;;19.37;66.38
10476;BME280;26166;48.264;11.436;2023-09-19T02:34:12;95960.22;;;19.37;66.32
10476;BME280;26166;48.264;11.436;2023-09-19T02:37:12;95953.03;;;19.37;66.43
10476;BME280;26166;48.264;11.436;2023-09-19T02:40:17;95961.03;;;19.37;66.22
10476;BME280;26166;48.264;11.436;2023-09-19T02:43:25;95962.09;;;19.36;66.17
10476;BME280;26166;48.264;11.436;2023-09-19T02:46:25;95965.78;;;19.35;66.20
10476;BME280;26166;48.264;11.436;2023-09-19T02:49:26;95960.47;;;19.35;66.22
10476;BME280;26166;48.264;11.436;2023-09-19T02:52:26;95963.69;;;19.37;66.17
10476;BME280;26166;48.264;11.436;2023-09-19T02:55:26;95962.88;;;19.37;66.24
10476;BME280;26166;48.264;11.436;2023-09-19T02:58:26;95968.22;;;19.37;66.03
10476;BME280;26166;48.264;11.436;2023-09-19T03:04:48;95970.06;;;19.36;65.94
10476;BME280;26166;48.264;11.436;2023-09-19T03:07:49;95971.94;;;19.36;65.95
10476;BME280;26166;48.264;11.436;2023-09-19T03:10:52;95969.25;;;19.36;65.87
10476;BME280;26166;48.264;11.436;2023-09-19T03:13:53;95976.44;;;19.35;65.73
10476;BME280;26166;48.264;11.436;2023-09-19T03:16:53;95970.63;;;19.38;65.68
10476;BME280;26166;48.264;11.436;2023-09-19T03:19:56;95975.41;;;19.36;65.30
10476;BME280;26166;48.264;11.436;2023-09-19T03:22:57;95981.19;;;19.33;65.32
10476;BME280;26166;48.264;11.436;2023-09-19T03:26:13;95982.22;;;19.32;65.43
10476;BME280;26166;48.264;11.436;2023-09-19T03:29:14;95974.47;;;19.31;65.27
10476;BME280;26166;48.264;11.436;2023-09-19T03:32:15;95979.78;;;19.31;65.45
10476;BME280;26166;48.264;11.436;2023-09-19T03:35:16;95977.34;;;19.29;65.25
10476;BME280;26166;48.264;11.436;2023-09-19T03:38:16;95984.31;;;19.30;65.37
10476;BME280;26166;48.264;11.436;2023-09-19T03:41:17;95985.94;;;19.31;65.19
10476;BME280;26166;48.264;11.436;2023-09-19T03:44:17;95985.94;;;19.31;65.35
10476;BME280;26166;48.264;11.436;2023-09-19T03:47:18;95985.94;;;19.31;65.01
10476;BME280;26166;48.264;11.436;2023-09-19T03:50:19;95985.94;;;19.31;65.29
10476;BME280;26166;48.264;11.436;2023-09-19T03:53:19;95984.31;;;19.30;64.99
10476;BME280;26166;48.264;11.436;2023-09-19T03:56:19;95986.97;;;19.30;65.20
10476;BME280;26166;48.264;11.436;2023-09-19T03:59:19;95990.44;;;19.31;65.13
10476;BME280;26166;48.264;11.436;2023-09-19T04:02:20;95985.94;;;19.31;64.93
10476;BME280;26166;48.264;11.436;2023-09-19T04:05:24;95989.41;;;19.32;64.90
10476;BME280;26166;48.264;11.436;2023-09-19T04:08:24;96001.91;;;19.31;64.70
10476;BME280;26166;48.264;11.436;2023-09-19T04:11:24;96003.75;;;19.31;64.99
10476;BME280;26166;48.264;11.436;2023-09-19T04:14:24;96001.91;;;19.31;64.80
10476;BME280;26166;48.264;11.436;2023-09-19T04:17:25;96001.09;;;19.31;64.77
10476;BME280;26166;48.264;11.436;2023-09-19T04:20:25;96001.91;;;19.31;64.73
10476;BME280;26166;48.264;11.436;2023-09-19T04:23:25;96006.19;;;19.32;64.63
10476;BME280;26166;48.264;11.436;2023-09-19T04:26:25;96012.56;;;19.31;64.80
10476;BME280;26166;48.264;11.436;2023-09-19T04:29:26;96007.44;;;19.30;64.56
10476;BME280;26166;48.264;11.436;2023-09-19T04:32:29;96010.94;;;19.30;64.65
10476;BME280;26166;48.264;11.436;2023-09-19T04:35:29;96014.63;;;19.29;64.75
10476;BME280;26166;48.264;11.436;2023-09-19T04:38:31;96014.63;;;19.29;64.75
10476;BME280;26166;48.264;11.436;2023-09-19T04:41:31;96021.81;;;19.29;64.70
10476;BME280;26166;48.264;11.436;2023-09-19T04:44:31;96022.84;;;19.28;64.71
10476;BME280;26166;48.264;11.436;2023-09-19T04:47:32;96028.97;;;19.28;64.84
10476;BME280;26166;48.264;11.436;2023-09-19T04:50:32;96034.06;;;19.30;64.71
10476;BME280;26166;48.264;11.436;2023-09-19T04:53:32;96035.13;;;19.29;64.65
10476;BME280;26166;48.264;11.436;2023-09-19T04:56:32;96050.03;;;19.30;64.59
10476;BME280;26166;48.264;11.436;2023-09-19T04:59:33;96050.03;;;19.30;64.48
10476;BME280;26166;48.264;11.436;2023-09-19T05:02:33;96047.38;;;19.30;64.44
10476;BME280;26166;48.264;11.436;2023-09-19T05:05:34;96058.03;;;19.30;64.44
10476;BME280;26166;48.264;11.436;2023-09-19T05:08:34;96058.03;;;19.30;64.32
10476;BME280;26166;48.264;11.436;2023-09-19T05:11:35;96062.56;;;19.29;64.52
10476;BME280;26166;48.264;11.436;2023-09-19T05:14:36;96065.44;;;19.28;64.51
10476;BME280;26166;48.264;11.436;2023-09-19T05:17:36;96069.16;;;19.27;64.65
10476;BME280;26166;48.264;11.436;2023-09-19T05:20:36;96075.28;;;19.27;64.70
10476;BME280;26166;48.264;11.436;2023-09-19T05:23:39;96073.69;;;19.26;64.36
10476;BME280;26166;48.264;11.436;2023-09-19T05:26:39;96078.19;;;19.26;64.57
10476;BME280;26166;48.264;11.436;2023-09-19T05:29:40;96079.00;;;19.26;64.26
10476;BME280;26166;48.264;11.436;2023-09-19T05:32:41;96081.66;;;19.26;64.35
10476;BME280;26166;48.264;11.436;2023-09-19T05:35:43;96088.00;;;19.25;64.60
10476;BME280;26166;48.264;11.436;2023-09-19T05:38:43;96086.19;;;19.26;64.52
10476;BME280;26166;48.264;11.436;2023-09-19T05:41:44;96092.53;;;19.25;64.35
10476;BME280;26166;48.264;11.436;2023-09-19T05:44:45;96083.97;;;19.23;64.34
10476;BME280;26166;48.264;11.436;2023-09-19T05:47:45;96080.25;;;19.24;64.49
10476;BME280;26166;48.264;11.436;2023-09-19T05:50:45;96094.59;;;19.23;64.30
10476;BME280;26166;48.264;11.436;2023-09-19T05:53:48;96093.81;;;19.22;64.33
10476;BME280;26166;48.264;11.436;2023-09-19T05:56:50;96096.22;;;19.24;64.39
10476;BME280;26166;48.264;11.436;2023-09-19T05:59:53;96101.56;;;19.24;64.34
10476;BME280;26166;48.264;11.436;2023-09-19T06:02:53;96109.53;;;19.24;64.56
10476;BME280;26166;48.264;11.436;2023-09-19T06:05:54;96120.19;;;19.24;64.42
10476;BME280;26166;48.264;11.436;2023-09-19T06:08:57;96115.91;;;19.23;64.27
10476;BME280;26166;48.264;11.436;2023-09-19T06:11:58;96118.34;;;19.24;64.06
10476;BME280;26166;48.264;11.436;2023-09-19T06:14:58;96115.69;;;19.24;64.52
10476;BME280;26166;48.264;11.436;2023-09-19T06:17:59;96117.09;;;19.27;64.23
10476;BME280;26166;48.264;11.436;2023-09-19T06:20:59;96111.97;;;19.25;64.42
10476;BME280;26166;48.264;11.436;2023-09-19T06:24:00;96105.25;;;19.23;64.58
10476;BME280;26166;48.264;11.436;2023-09-19T06:27:00;96110.34;;;19.24;64.25
10476;BME280;26166;48.264;11.436;2023-09-19T06:30:01;96117.53;;;19.24;64.06
10476;BME280;26166;48.264;11.436;2023-09-19T06:33:01;96122.63;;;19.25;64.36
10476;BME280;26166;48.264;11.436;2023-09-19T06:36:05;96124.47;;;19.25;64.84
10476;BME280;26166;48.264;11.436;2023-09-19T06:39:05;96131.09;;;19.22;64.44
10476;BME280;26166;48.264;11.436;2023-09-19T06:42:06;96127.38;;;19.23;64.70
10476;BME280;26166;48.264;11.436;2023-09-19T06:45:08;96126.34;;;19.24;64.77
10476;BME280;26166;48.264;11.436;2023-09-19T06:48:08;96136.16;;;19.24;64.78
10476;BME280;26166;48.264;11.436;2023-09-19T06:51:10;96132.69;;;19.23;64.93
10476;BME280;26166;48.264;11.436;2023-09-19T06:54:10;96140.69;;;19.23;64.71
10476;BME280;26166;48.264;11.436;2023-09-19T06:57:10;96136.41;;;19.22;64.84
10476;BME280;26166;48.264;11.436;2023-09-19T07:00:11;96144.16;;;19.24;64.79
10476;BME280;26166;48.264;11.436;2023-09-19T07:03:24;96139.66;;;19.24;64.74
10476;BME280;26166;48.264;11.436;2023-09-19T07:06:26;96147.63;;;19.24;64.88
10476;BME280;26166;48.264;11.436;2023-09-19T07:09:26;96149.25;;;19.25;64.89
10476;BME280;26166;48.264;11.436;2023-09-19T07:12:27;96156.22;;;19.26;64.64
10476;BME280;26166;48.264;11.436;2023-09-19T07:15:28;96162.56;;;19.25;64.53
10476;BME280;26166;48.264;11.436;2023-09-19T07:18:28;96164.22;;;19.26;64.51
10476;BME280;26166;48.264;11.436;2023-09-19T07:21:28;96157.25;;;19.25;64.30
10476;BME280;26166;48.264;11.436;2023-09-19T07:24:29;96161.56;;;19.26;64.12
10476;BME280;26166;48.264;11.436;2023-09-19T07:27:29;96156.22;;;19.26;64.15
10476;BME280;26166;48.264;11.436;2023-09-19T07:30:29;96164.22;;;19.26;64.30
10476;BME280;26166;48.264;11.436;2023-09-19T07:33:30;96152.53;;;19.27;64.06
10476;BME280;26166;48.264;11.436;2023-09-19T07:36:30;96160.50;;;19.27;64.19
10476;BME280;26166;48.264;11.436;2023-09-19T07:39:32;96169.06;;;19.29;64.12
10476;BME280;26166;48.264;11.436;2023-09-19T07:42:33;96161.69;;;19.31;64.06
10476;BME280;26166;48.264;11.436;2023-09-19T07:45:35;96160.66;;;19.32;64.22
10476;BME280;26166;48.264;11.436;2023-09-19T07:48:36;96168.41;;;19.34;64.34
10476;BME280;26166;48.264;11.436;2023-09-19T07:51:37;96158.56;;;19.34;64.17
10476;BME280;26166;48.264;11.436;2023-09-19T07:54:38;96164.50;;;19.36;64.12
10476;BME280;26166;48.264;11.436;2023-09-19T07:57:38;96165.06;;;19.38;64.18
10476;BME280;26166;48.264;11.436;2023-09-19T08:00:41;96162.41;;;19.38;64.14
10476;BME280;26166;48.264;11.436;2023-09-19T08:03:41;96169.59;;;19.38;64.26
10476;BME280;26166;48.264;11.436;2023-09-19T08:06:43;96174.09;;;19.37;64.23
10476;BME280;26166;48.264;11.436;2023-09-19T08:09:45;96168.78;;;19.37;64.32
10476;BME280;26166;48.264;11.436;2023-09-19T08:12:46;96173.28;;;19.37;64.06
10476;BME280;26166;48.264;11.436;2023-09-19T08:15:48;96165.31;;;19.37;64.38
10476;BME280;26166;48.264;11.436;2023-09-19T08:18:48;96169.59;;;19.38;64.43
10476;BME280;26166;48.264;11.436;2023-09-19T08:21:48;96173.28;;;19.37;64.33
10476;BME280;26166;48.264;11.436;2023-09-19T08:24:48;96176.75;;;19.37;64.33
10476;BME280;26166;48.264;11.436;2023-09-19T08:27:49;96182.69;;;19.39;64.46
10476;BME280;26166;48.264;11.436;2023-09-19T08:30:50;96179.81;;;19.41;64.15
10476;BME280;26166;48.264;11.436;2023-09-19T08:33:50;96177.72;;;19.43;64.21
10476;BME280;26166;48.264;11.436;2023-09-19T08:36:51;96182.84;;;19.45;64.30
10476;BME280;26166;48.264;11.436;2023-09-19T08:39:57;96181.78;;;19.46;64.26
10476;BME280;26166;48.264;11.436;2023-09-19T08:42:58;96186.69;;;19.49;64.23
10476;BME280;26166;48.264;11.436;2023-09-19T08:45:58;96195.47;;;19.49;64.34
10476;BME280;26166;48.264;11.436;2023-09-19T08:49:04;96190.53;;;19.53;64.04
10476;BME280;26166;48.264;11.436;2023-09-19T08:52:13;96189.72;;;19.52;64.07
10476;BME280;26166;48.264;11.436;2023-09-19T08:55:16;96193.53;;;19.56;64.17
10476;BME280;26166;48.264;11.436;2023-09-19T08:58:21;96197.84;;;19.57;64.05
10476;BME280;26166;48.264;11.436;2023-09-19T09:01:28;96190.66;;;19.58;63.98
10476;BME280;26166;48.264;11.436;2023-09-19T09:04:28;96194.94;;;19.59;63.82
10476;BME280;26166;48.264;11.436;2023-09-19T09:07:28;96196.56;;;19.60;63.65
10476;BME280;26166;48.264;11.436;2023-09-19T09:10:29;96201.88;;;19.60;63.81
10476;BME280;26166;48.264;11.436;2023-09-19T09:13:29;96189.63;;;19.59;63.46
10476;BME280;26166;48.264;11.436;2023-09-19T09:16:30;96196.56;;;19.60;63.26
10476;BME280;26166;48.264;11.436;2023-09-19T09:19:31;96193.72;;;19.61;63.20
10476;BME280;26166;48.264;11.436;2023-09-19T09:22:32;96189.22;;;19.62;62.91
10476;BME280;26166;48.264;11.436;2023-09-19T09:25:55;96182.59;;;19.64;63.00
10476;BME280;26166;48.264;11.436;2023-09-19T09:29:02;96187.47;;;19.68;62.79
10476;BME280;26166;48.264;11.436;2023-09-19T09:32:16;96185.38;;;19.70;62.73
10476;BME280;26166;48.264;11.436;2023-09-19T09:35:18;96183.34;;;19.72;62.04
10476;BME280;26166;48.264;11.436;2023-09-19T09:38:21;96189.47;;;19.72;62.15
10476;BME280;26166;48.264;11.436;2023-09-19T09:41:36;96184.94;;;19.73;62.17
10476;BME280;26166;48.264;11.436;2023-09-19T09:44:37;96171.63;;;19.73;61.84
10476;BME280;26166;48.264;11.436;2023-09-19T09:47:43;96171.38;;;19.74;61.35
10476;BME280;26166;48.264;11.436;2023-09-19T09:50:50;96180.22;;;19.75;61.20
10476;BME280;26166;48.264;11.436;2023-09-19T09:54:09;96180.00;;;19.76;61.09
10476;BME280;26166;48.264;11.436;2023-09-19T09:57:12;96186.94;;;19.77;60.88
10476;BME280;26166;48.264;11.436;2023-09-19T10:00:20;96200.03;;;19.79;60.68
10476;BME280;26166;48.264;11.436;2023-09-19T10:03:21;96196.34;;;19.80;60.50
10476;BME280;26166;48.264;11.436;2023-09-19T10:06:22;96200.03;;;19.79;60.81
10476;BME280;26166;48.264;11.436;2023-09-19T10:09:26;96193.88;;;19.78;61.23
10476;BME280;26166;48.264;11.436;2023-09-19T10:12:29;96192.25;;;19.77;60.44
10476;BME280;26166;48.264;11.436;2023-09-19T10:15:31;96197.59;;;19.77;60.48
10476;BME280;26166;48.264;11.436;2023-09-19T10:18:31;96196.56;;;19.78;60.56
10476;BME280;26166;48.264;11.436;2023-09-19T10:21:36;96196.09;;;19.81;60.82
10476;BME280;26166;48.264;11.436;2023-09-19T10:24:39;96197.72;;;19.82;60.58
10476;BME280;26166;48.264;11.436;2023-09-19T10:27:40;96200.41;;;19.82;60.36
10476;BME280;26166;48.264;11.436;2023-09-19T10:30:43;96196.47;;;19.85;60.21
10476;BME280;26166;48.264;11.436;2023-09-19T10:33:44;96204.22;;;19.86;59.44
10476;BME280;26166;48.264;11.436;2023-09-19T10:36:46;96202.38;;;19.87;59.27
10476;BME280;26166;48.264;11.436;2023-09-19T10:39:46;96196.25;;;19.86;58.73
10476;BME280;26166;48.264;11.436;2023-09-19T10:42:48;96212.84;;;19.88;58.52
10476;BME280;26166;48.264;11.436;2023-09-19T10:45:49;96210.16;;;19.88;59.04
10476;BME280;26166;48.264;11.436;2023-09-19T10:48:52;96205.66;;;19.89;58.94
10476;BME280;26166;48.264;11.436;2023-09-19T10:51:55;96209.34;;;19.88;58.93
10476;BME280;26166;48.264;11.436;2023-09-19T10:54:58;96202.38;;;19.87;58.66
10476;BME280;26166;48.264;11.436;2023-09-19T10:58:01;96215.94;;;19.85;58.92
10476;BME280;26166;48.264;11.436;2023-09-19T11:01:03;96212.47;;;19.85;59.11
10476;BME280;26166;48.264;11.436;2023-09-19T11:04:33;96212.47;;;19.85;59.40
10476;BME280;26166;48.264;11.436;2023-09-19T11:07:51;96205.72;;;19.82;59.15
10476;BME280;26166;48.264;11.436;2023-09-19T11:10:55;96212.69;;;19.83;59.26
10476;BME280;26166;48.264;11.436;2023-09-19T11:20:21;96203.72;;;19.78;60.11
10476;BME280;26166;48.264;11.436;2023-09-19T11:23:35;96215.22;;;19.78;60.32
10476;BME280;26166;48.264;11.436;2023-09-19T11:26:40;96211.53;;;19.79;60.69
10476;BME280;26166;48.264;11.436;2023-09-19T11:29:51;96208.84;;;19.79;60.62
10476;BME280;26166;48.264;11.436;2023-09-19T11:33:17;96214.75;;;19.81;60.89
10476;BME280;26166;48.264;11.436;2023-09-19T11:36:26;96213.97;;;19.81;60.86
10476;BME280;26166;48.264;11.436;2023-09-19T11:39:36;96212.34;;;19.80;61.08
10476;BME280;26166;48.264;11.436;2023-09-19T11:48:50;96199.22;;;19.78;60.92
10476;BME280;26166;48.264;11.436;2023-09-19T11:51:51;96210.91;;;19.77;61.11
10476;BME280;26166;48.264;11.436;2023-09-19T11:54:57;96209.06;;;19.78;60.24
10476;BME280;26166;48.264;11.436;2023-09-19T11:57:59;96202.13;;;19.77;60.33
10476;BME280;26166;48.264;11.436;2023-09-19T12:01:00;96207.44;;;19.77;60.57
10476;BME280;26166;48.264;11.436;2023-09-19T12:04:02;96203.16;;;19.76;60.26
10476;BME280;26166;48.264;11.436;2023-09-19T12:07:08;96207.22;;;19.78;60.07
10476;BME280;26166;48.264;11.436;2023-09-19T12:10:16;96201.88;;;19.78;59.85
10476;BME280;26166;48.264;11.436;2023-09-19T12:13:18;96200.88;;;19.79;60.29
10476;BME280;26166;48.264;11.436;2023-09-19T12:16:19;96195.53;;;19.79;59.89
10476;BME280;26166;48.264;11.436;2023-09-19T12:19:24;96197.16;;;19.80;60.10
10476;BME280;26166;48.264;11.436;2023-09-19T12:22:24;96201.69;;;19.80;60.10
10476;BME280;26166;48.264;11.436;2023-09-19T12:25:25;96205.72;;;19.82;59.97
10476;BME280;26166;48.264;11.436;2023-09-19T12:28:27;96204.72;;;19.83;59.82
10476;BME280;26166;48.264;11.436;2023-09-19T12:31:28;96202.84;;;19.84;59.77
10476;BME280;26166;48.264;11.436;2023-09-19T12:34:30;96202.63;;;19.85;59.69
10476;BME280;26166;48.264;11.436;2023-09-19T12:37:30;96195.88;;;19.83;59.68
10476;BME280;26166;48.264;11.436;2023-09-19T12:40:31;96205.72;;;19.82;59.29
10476;BME280;26166;48.264;11.436;2023-09-19T12:43:33;96205.97;;;19.81;59.33
10476;BME280;26166;48.264;11.436;2023-09-19T12:46:34;96209.66;;;19.80;59.89
10476;BME280;26166;48.264;11.436;2023-09-19T12:49:35;96200.25;;;19.77;60.07
10476;BME280;26166;48.264;11.436;2023-09-19T12:52:36;96199.69;;;19.75;60.73
10476;BME280;26166;48.264;11.436;2023-09-19T12:55:37;96193.19;;;19.71;60.72
10476;BME280;26166;48.264;11.436;2023-09-19T12:58:51;96190.28;;;19.73;61.63
10476;BME280;26166;48.264;11.436;2023-09-19T13:01:51;96185.19;;;19.71;61.05
10476;BME280;26166;48.264;11.436;2023-09-19T13:05:03;96183.56;;;19.70;61.51
10476;BME280;26166;48.264;11.436;2023-09-19T13:08:17;96181.72;;;19.71;61.45
10476;BME280;26166;48.264;11.436;2023-09-19T13:11:18;96185.38;;;19.70;61.68
10476;BME280;26166;48.264;11.436;2023-09-19T13:14:21;96179.84;;;19.71;61.24
10476;BME280;26166;48.264;11.436;2023-09-19T13:17:23;96171.84;;;19.71;61.62
10476;BME280;26166;48.264;11.436;2023-09-19T13:20:24;96168.16;;;19.72;61.86
10476;BME280;26166;48.264;11.436;2023-09-19T13:23:27;96160.16;;;19.72;61.54
10476;BME280;26166;48.264;11.436;2023-09-19T13:26:27;96160.72;;;19.74;61.70
10476;BME280;26166;48.264;11.436;2023-09-19T13:29:30;96162.38;;;19.75;61.79
10476;BME280;26166;48.264;11.436;2023-09-19T13:32:31;96157.84;;;19.76;61.40
10476;BME280;26166;48.264;11.436;2023-09-19T13:35:32;96153.69;;;19.80;60.99
10476;BME280;26166;48.264;11.436;2023-09-19T13:38:33;96141.75;;;19.82;60.55
10476;BME280;26166;48.264;11.436;2023-09-19T13:41:35;96145.03;;;19.84;60.29
10476;BME280;26166;48.264;11.436;2023-09-19T13:44:36;96148.72;;;19.83;61.05
10476;BME280;26166;48.264;11.436;2023-09-19T13:47:36;96147.09;;;19.82;60.46
10476;BME280;26166;48.264;11.436;2023-09-19T13:50:38;96148.13;;;19.81;60.32
10476;BME280;26166;48.264;11.436;2023-09-19T13:53:42;96145.47;;;19.81;60.51
10476;BME280;26166;48.264;11.436;2023-09-19T13:56:42;96144.66;;;19.81;60.85
10476;BME280;26166;48.264;11.436;2023-09-19T13:59:42;96144.66;;;19.81;60.94
10476;BME280;26166;48.264;11.436;2023-09-19T14:02:42;96143.03;;;19.80;60.74
10476;BME280;26166;48.264;11.436;2023-09-19T14:05:45;96136.91;;;19.79;60.87
10476;BME280;26166;48.264;11.436;2023-09-19T14:08:45;96139.31;;;19.81;60.57
10476;BME280;26166;48.264;11.436;2023-09-19T14:11:47;96137.47;;;19.81;60.53
10476;BME280;26166;48.264;11.436;2023-09-19T14:14:48;96138.06;;;19.83;60.94
10476;BME280;26166;48.264;11.436;2023-09-19T14:17:51;96145.03;;;19.84;61.31
10476;BME280;26166;48.264;11.436;2023-09-19T14:20:51;96143.16;;;19.85;60.23
10476;BME280;26166;48.264;11.436;2023-09-19T14:23:53;96134.13;;;19.86;59.86
10476;BME280;26166;48.264;11.436;2023-09-19T14:26:54;96127.75;;;19.87;60.60
10476;BME280;26166;48.264;11.436;2023-09-19T14:29:54;96128.56;;;19.87;60.41
10476;BME280;26166;48.264;11.436;2023-09-19T14:32:56;96124.06;;;19.88;60.78
10476;BME280;26166;48.264;11.436;2023-09-19T14:35:57;96121.41;;;19.88;60.71
10476;BME280;26166;48.264;11.436;2023-09-19T14:38:58;96119.53;;;19.88;60.13
10476;BME280;26166;48.264;11.436;2023-09-19T14:42:01;96115.81;;;19.89;60.55
10476;BME280;26166;48.264;11.436;2023-09-19T14:45:02;96116.06;;;19.88;60.27
10476;BME280;26166;48.264;11.436;2023-09-19T14:48:02;96110.94;;;19.86;60.30
10476;BME280;26166;48.264;11.436;2023-09-19T14:51:05;96108.06;;;19.88;60.68
10476;BME280;26166;48.264;11.436;2023-09-19T14:54:06;96116.88;;;19.88;60.28
10476;BME280;26166;48.264;11.436;2023-09-19T14:57:08;96110.50;;;19.89;60.16
10476;BME280;26166;48.264;11.436;2023-09-19T15:00:09;96105.16;;;19.89;60.50
10476;BME280;26166;48.264;11.436;2023-09-19T15:03:11;96115.81;;;19.89;59.96
10476;BME280;26166;48.264;11.436;2023-09-19T15:06:13;96105.97;;;19.90;60.16
10476;BME280;26166;48.264;11.436;2023-09-19T15:09:14;96106.78;;;19.90;60.03
10476;BME280;26166;48.264;11.436;2023-09-19T15:12:15;96112.13;;;19.90;59.92
10476;BME280;26166;48.264;11.436;2023-09-19T15:15:17;96117.44;;;19.90;60.32
10476;BME280;26166;48.264;11.436;2023-09-19T15:18:17;96100.66;;;19.90;60.02
10476;BME280;26166;48.264;11.436;2023-09-19T15:21:17;96110.50;;;19.89;60.06
10476;BME280;26166;48.264;11.436;2023-09-19T15:24:17;96094.50;;;19.89;60.11
10476;BME280;26166;48.264;11.436;2023-09-19T15:27:18;96099.59;;;19.91;60.05
10476;BME280;26166;48.264;11.436;2023-09-19T15:30:19;96095.88;;;19.92;59.70
10476;BME280;26166;48.264;11.436;2023-09-19T15:33:19;96098.53;;;19.92;59.15
10476;BME280;26166;48.264;11.436;2023-09-19T15:36:20;96099.59;;;19.91;58.03
10476;BME280;26166;48.264;11.436;2023-09-19T15:39:20;96099.03;;;19.89;58.33
10476;BME280;26166;48.264;11.436;2023-09-19T15:42:22;96101.91;;;19.87;58.61
10476;BME280;26166;48.264;11.436;2023-09-19T15:45:23;96102.94;;;19.86;58.96
10476;BME280;26166;48.264;11.436;2023-09-19T15:48:25;96098.66;;;19.85;59.91
10476;BME280;26166;48.264;11.436;2023-09-19T15:51:25;96096.25;;;19.84;59.49
10476;BME280;26166;48.264;11.436;2023-09-19T15:54:26;96100.75;;;19.83;59.18
10476;BME280;26166;48.264;11.436;2023-09-19T15:57:27;96102.81;;;19.81;59.68
10476;BME280;26166;48.264;11.436;2023-09-19T16:04:20;96098.66;;;19.85;59.74
10476;BME280;26166;48.264;11.436;2023-09-19T16:07:20;96092.88;;;19.88;59.71
10476;BME280;26166;48.264;11.436;2023-09-19T16:10:24;96099.59;;;19.91;59.40
10476;BME280;26166;48.264;11.436;2023-09-19T16:13:35;96093.56;;;19.96;59.49
10476;BME280;26166;48.264;11.436;2023-09-19T16:16:35;96096.84;;;19.98;59.17
10476;BME280;26166;48.264;11.436;2023-09-19T16:19:36;96096.84;;;19.98;59.14
10476;BME280;26166;48.264;11.436;2023-09-19T16:22:36;96097.41;;;20.00;58.18
10476;BME280;26166;48.264;11.436;2023-09-19T16:25:36;96094.75;;;20.00;57.89
10476;BME280;26166;48.264;11.436;2023-09-19T16:28:36;96103.34;;;20.02;58.44